Albion, PA

8:02 PM EDT on October 22, 2014 (GMT -0400)
Venango Regional | Change Station
CLOSE
Current Station
Airport
Location: Franklin,
Elevation: 1539 ft
Nearby Weather Stations

Elev 1539 ft 41.38 °N, 79.86 °W | Updated 7 minutes ago

Partly Cloudy
Partly Cloudy
45 °F
Feels Like 42 °F
N
5
Wind Variable Wind from North

Today
High -- | Low -- °F
--% Chance of Precip.
Yesterday
High -- | Low -- °F
Precip. -- in
7:41 AM 6:29 PM
Waning Crescent, 1% visible
Pressure 30.20 in
Visibility 10.0 miles
Clouds Overcast 1200 ft
Windchill 42 °F
Dew Point 37 °F
Humidity 76%
Rainfall 0.00 in
Snow Depth Not available.
UV 0 out of 12
Pollen .30 out of 12
Air Quality Not available.
Flu Activity Sporadic
METAR KFKL 222355Z 36004KT 10SM OVC012 07/03 A3020 RMK AO1 10070 20070 400800060 52003

More Conditions Fewer Conditions

Pressure 30.20 in
Visibility 10.0 miles
Clouds Overcast 1200 ft
Windchill 42 °F
Dew Point 37 °F
Humidity 76%
Rainfall 0.00 in
Snow Depth Not available.
UV 0 out of 12
Pollen .30 out of 12
Air Quality Not available.
Flu Activity Sporadic
METAR KFKL 222355Z 36004KT 10SM OVC012 07/03 A3020 RMK AO1 10070 20070 400800060 52003

More Conditions Fewer Conditions

10-Day Weather Forecast

Almanac

Astronomy

Oct. 22, 2014 Rise Set
Actual Time 7:41 AM EDT 6:29 PM EDT
Civil Twilight 7:13 AM EDT 6:57 PM EDT
Nautical Twilight 6:41 AM EDT 7:30 PM EDT
Astronomical Twilight 6:08 AM EDT 8:02 PM EDT
Moon 6:20 AM EDT (10/22) 5:56 PM EDT (10/22)
Length of Visible Light 11h 44m
Length of Day
10h 47m
Tomorrow will be 2m 38s shorter.
Waning Crescent, 1% of the Moon is Illuminated
Today
Waning Crescent
Oct 23
New
Oct 30
First Quarter
Nov 6
Full
Nov 14
Last Quarter

Today's Extremes

State Highs State Lows

Community

WunderPhotos

Upload Photos

1,764,082 photos uploaded!

WunderBlogs® & News

Nearby

Snow Depth

Station Depth Elevation
No new snow has been reported.

Earthquake Activity

City Distance Mag. Time & Date
No recent earthquake activity has been reported nearby.
Minimum magnitude displayed is 2.5.

Coastal Water Temperatures

Place Temperature
Fairport, OH 52.0 °F
Buffalo, NY 57.0 °F

Nearby Weather Stations